Time;durP1;ratioP1;P1;durP2;ratioP2;P2;SDS_P1;SDS_P2;PMS_P1;PMS_P2;Temp;Humidity;BMP_temperature;BMP_pressure;BME280_temperature;BME280_humidity;BME280_pressure;Samples;Min_cycle;Max_cycle;Signal;HPM_P1;HPM_P2
2022/02/19 00:00:48;;;;;;;;;;;;;;;;;;;;;
2022/02/19 00:04:03;;;;;;;;;;;;;;;;;;;;;
2022/02/19 00:08:06;;;;;;;;;;;;;;;;;;;;;
2022/02/19 00:11:41;;;;;;;5.90;2.90;;;;;;;9.55;47.76;98364.71;107799;1281;22065;-77
2022/02/19 00:15:53;;;;;;;;;;;;;;;;;;;;;
2022/02/19 00:20:00;;;;;;;;;;;;;;;;;;;;;
2022/02/19 00:23:26;;;;;;;4.60;2.40;;;;;;;9.26;47.67;98377.17;108194;1280;23063;-77
2022/02/19 00:27:09;;;;;;;;;;;;;;;;;;;;;
2022/02/19 00:30:54;;;;;;;6.10;2.20;;;;;;;9.05;47.58;98387.36;108501;1276;23049;-77
2022/02/19 00:34:13;;;;;;;4.00;1.60;;;;;;;9.02;47.39;98391.39;108319;1276;23028;-77
2022/02/19 00:37:03;;;;;;;6.90;1.40;;;;;;;8.99;46.99;98390.09;108061;1279;22763;-77
2022/02/19 00:41:14;;;;;;;3.00;1.30;;;;;;;8.97;46.85;98400.95;108343;1279;23635;-77
2022/02/19 00:44:44;;;;;;;;;;;;;;;;;;;;;
2022/02/19 00:48:41;;;;;;;4.30;1.60;;;;;;;8.91;46.47;98411.12;108501;1272;23835;-76
2022/02/19 00:52:58;;;;;;;;;;;;;;;;;;;;;
2022/02/19 00:56:30;;;;;;;8.90;2.70;;;;;;;8.85;46.24;98423.58;108314;1279;22149;-77
2022/02/19 00:59:31;;;;;;;5.40;1.70;;;;;;;8.82;46.24;98428.84;108019;1279;23078;-77
2022/02/19 01:02:33;;;;;;;;;;;;;;;;;;;;;
2022/02/19 01:05:20;;;;;;;5.50;2.00;;;;;;;8.77;45.94;98436.05;107951;1282;22001;-78
2022/02/19 01:08:56;;;;;;;5.00;1.60;;;;;;;8.73;45.84;98443.38;108158;1280;22009;-78
2022/02/19 01:12:30;;;;;;;5.80;2.30;;;;;;;8.66;45.74;98450.30;108870;1267;21991;-77
2022/02/19 01:15:46;;;;;;;;;;;;;;;;;;;;;
2022/02/19 01:19:26;;;;;;;6.80;2.40;;;;;;;8.59;45.69;98450.58;108721;1271;22887;-76
2022/02/19 01:22:59;;;;;;;6.20;1.60;;;;;;;8.52;45.85;98450.90;108868;1270;21972;-77
2022/02/19 01:27:11;;;;;;;5.10;1.50;;;;;;;8.44;46.04;98450.52;108410;1276;22084;-77
2022/02/19 01:31:26;;;;;;;;;;;;;;;;;;;;;
2022/02/19 01:34:58;;;;;;;7.70;2.10;;;;;;;8.35;46.12;98462.45;107740;1285;22931;-77
2022/02/19 01:38:31;;;;;;;;;;;;;;;;;;;;;
2022/02/19 01:41:41;;;;;;;;;;;;;;;;;;;;;
2022/02/19 01:45:14;;;;;;;;;;;;;;;;;;;;;
2022/02/19 01:49:00;;;;;;;;;;;;;;;;;;;;;
2022/02/19 01:52:26;;;;;;;6.70;1.90;;;;;;;8.30;46.16;98498.35;108253;1273;22000;-77
2022/02/19 01:56:19;;;;;;;5.10;1.70;;;;;;;8.28;45.86;98492.66;107800;1285;22080;-78
2022/02/19 01:59:29;;;;;;;7.10;1.30;;;;;;;8.38;45.47;98503.20;107753;1283;548002;-77
2022/02/19 02:03:14;;;;;;;4.70;1.40;;;;;;;8.28;45.24;98514.80;108582;1275;22759;-77
2022/02/19 02:07:30;;;;;;;3.90;1.80;;;;;;;8.17;45.30;98529.30;107760;1285;22977;-78
2022/02/19 02:11:37;;;;;;;8.30;2.90;;;;;;;8.06;45.57;98533.19;107129;1295;23636;-77
2022/02/19 02:14:50;;;;;;;3.60;1.40;;;;;;;7.98;45.80;98534.36;103926;1304;21753;-76
2022/02/19 02:18:19;;;;;;;;;;;;;;;;;;;;;
2022/02/19 02:21:19;;;;;;;;;;;;;;;;;;;;;
2022/02/19 02:24:19;;;;;;;7.30;1.80;;;;;;;7.84;46.00;98541.70;105970;1298;23150;-78
2022/02/19 02:27:54;;;;;;;;;;;;;;;;;;;;;
2022/02/19 02:30:41;;;;;;;;;;;;;;;7.77;45.77;98552.94;106338;1301;22281;-77
2022/02/19 02:33:47;;;;;;;9.60;1.80;;;;;;;7.68;45.78;98554.10;106400;1298;22152;-77
2022/02/19 02:36:49;;;;;;;4.30;1.90;;;;;;;7.64;45.90;98560.27;106313;1298;22032;-77
2022/02/19 02:40:46;;;;;;;;;;;;;;;;;;;;;
2022/02/19 02:44:13;;;;;;;;;;;;;;;;;;;;;
2022/02/19 02:47:09;;;;;;;4.70;2.00;;;;;;;7.51;45.86;98565.76;106875;1294;23771;-77
2022/02/19 02:50:03;;;;;;;;;;;;;;;;;;;;;
2022/02/19 02:53:02;;;;;;;;;;;;;;;;;;;;;
2022/02/19 02:57:04;;;;;;;;;;;;;;;;;;;;;
2022/02/19 03:00:42;;;;;;;;;;;;;;;;;;;;;
2022/02/19 03:04:10;;;;;;;6.80;1.90;;;;;;;7.42;45.48;98581.52;108309;1277;23628;-77
2022/02/19 03:19:16;;;;;;;9.00;2.30;;;;;;;8.48;42.09;98600.98;107344;1289;549653;-77
2022/02/19 03:23:51;;;;;;;7.90;2.60;;;;;;;8.30;40.90;98616.64;107221;1266;21988;-77
2022/02/19 03:27:32;;;;;;;8.40;2.50;;;;;;;7.80;42.12;98619.67;108426;1276;21986;-78
2022/02/19 03:31:24;;;;;;;7.00;2.40;;;;;;;7.61;42.86;98628.69;107977;1283;22125;-77
2022/02/19 03:35:00;;;;;;;5.20;1.90;;;;;;;7.49;43.03;98632.27;107953;1283;23957;-77
2022/02/19 03:42:52;;;;;;;8.50;2.10;;;;;;;7.30;43.24;98642.14;108039;1282;23031;-77
2022/02/19 03:45:45;;;;;;;5.10;2.10;;;;;;;7.26;43.28;98650.55;107608;1286;23114;-77
2022/02/19 03:50:06;;;;;;;9.90;2.50;;;;;;;7.22;43.19;98650.88;107759;1282;22010;-77
2022/02/19 03:52:23;;;;;;;8.10;2.20;;;;;;;7.15;43.16;98651.36;107634;1285;22209;-77
2022/02/19 03:55:02;;;;;;;8.80;2.40;;;;;;;7.10;43.28;98651.77;107647;1286;22430;-77
2022/02/19 03:57:34;;;;;;;8.60;2.70;;;;;;;7.06;43.32;98651.04;107831;1279;22236;-77
2022/02/19 04:01:15;;;;;;;;;;;;;;;;;;;;;
2022/02/19 04:03:51;;;;;;;7.00;2.20;;;;;;;6.93;43.35;98658.61;108039;1280;22010;-77
2022/02/19 04:07:42;;;;;;;9.10;2.90;;;;;;;6.86;43.44;98660.11;108031;1283;22022;-78
2022/02/19 04:10:50;;;;;;;;;;;;;;;;;;;;;
2022/02/19 04:13:59;;;;;;;;;;;;;;;;;;;;;
2022/02/19 04:17:29;;;;;;;6.40;2.10;;;;;;;6.70;43.52;98663.94;107923;1283;22003;-77
2022/02/19 04:20:48;;;;;;;;;;;;;;;;;;;;;
2022/02/19 04:28:24;;;;;;;;;;;;;;;;;;;;;
2022/02/19 04:32:12;;;;;;;7.50;2.40;;;;;;;6.61;43.18;98662.69;107924;1283;22664;-78
2022/02/19 04:35:36;;;;;;;5.20;2.00;;;;;;;6.57;43.23;98663.98;107367;1288;22149;-77
2022/02/19 04:38:51;;;;;;;9.90;2.20;;;;;;;6.54;43.20;98664.70;107221;1289;22017;-77
2022/02/19 04:41:22;;;;;;;8.20;2.30;;;;;;;6.49;43.33;98664.69;107106;1291;22018;-77
2022/02/19 04:44:38;;;;;;;5.20;1.90;;;;;;;6.46;43.39;98666.50;107285;1287;22018;-77
2022/02/19 04:47:39;;;;;;;;;;;;;;;;;;;;;
2022/02/19 04:50:22;;;;;;;11.20;3.10;;;;;;;6.46;43.08;98668.20;107996;1281;22002;-77
2022/02/19 04:53:56;;;;;;;7.60;2.20;;;;;;;6.46;42.76;98670.02;108049;1280;22004;-78
2022/02/19 04:57:50;;;;;;;10.60;2.70;;;;;;;6.46;42.60;98668.84;107851;1276;22120;-78
2022/02/19 05:01:20;;;;;;;;;;;;;;;6.45;42.40;98671.77;108193;1282;21978;-78
2022/02/19 05:04:33;;;;;;;8.70;2.80;;;;;;;6.40;42.21;98672.19;108159;1276;22061;-77
2022/02/19 05:11:51;;;;;;;;;;;;;;;6.36;42.07;98676.33;108154;1276;22092;-77
2022/02/19 05:16:16;;;;;;;8.40;3.00;;;;;;;6.26;42.16;98679.95;108501;1275;21988;-78
2022/02/19 05:24:13;;;;;;;8.10;2.40;;;;;;;6.15;42.48;98675.64;106731;1297;22071;-77
2022/02/19 05:45:19;;;;;;;7.90;2.40;;;;;;;6.83;39.70;98701.66;110416;1257;21990;-76
2022/02/19 05:48:19;;;;;;;4.90;2.20;;;;;;;6.63;40.48;98710.71;110461;1256;23592;-76
2022/02/19 05:51:53;;;;;;;6.60;2.50;;;;;;;6.52;40.71;98708.92;110345;1257;22749;-76
2022/02/19 05:55:03;;;;;;;11.60;3.90;;;;;;;6.44;41.10;98713.45;110387;1257;22430;-77
2022/02/19 05:58:43;;;;;;;5.60;2.70;;;;;;;6.38;41.33;98729.52;109713;1262;21980;-77
2022/02/19 06:02:31;;;;;;;8.50;3.10;;;;;;;6.35;41.50;98731.48;108898;1267;21991;-77
2022/02/19 06:05:29;;;;;;;9.00;3.10;;;;;;;6.34;41.61;98738.24;108864;1269;22979;-77
2022/02/19 06:08:37;;;;;;;10.00;5.20;;;;;;;6.33;41.71;98739.00;108840;1270;22778;-77
2022/02/19 06:12:13;;;;;;;;;;;;;;;;;;;;;
2022/02/19 06:15:14;;;;;;;8.60;2.40;;;;;;;6.24;42.05;98748.31;108655;1266;21991;-77
2022/02/19 06:22:48;;;;;;;;;;;;;;;;;;;;;
2022/02/19 06:27:30;;;;;;;;;;;;;;;;;;;;;
2022/02/19 06:31:12;;;;;;;;;;;;;;;;;;;;;
2022/02/19 06:34:19;;;;;;;7.60;3.30;;;;;;;6.13;43.28;98792.77;108092;1282;22776;-77
2022/02/19 06:41:09;;;;;;;14.20;4.10;;;;;;;6.28;43.33;98806.53;107488;1286;544094;-77
2022/02/19 06:44:40;;;;;;;11.80;5.60;;;;;;;6.27;43.25;98811.48;109511;1262;23723;-77
2022/02/19 06:47:23;;;;;;;8.00;3.60;;;;;;;6.24;43.21;98821.93;109089;1265;22006;-78
2022/02/19 06:50:50;;;;;;;9.20;2.90;;;;;;;6.24;43.15;98827.51;108749;1274;22779;-77
2022/02/19 06:54:25;;;;;;;12.90;3.70;;;;;;;6.20;43.06;98836.15;104734;1270;5433831;-78
2022/02/19 06:57:26;;;;;;;9.70;3.90;;;;;;;6.17;43.19;98837.35;108600;1273;23258;-78
2022/02/19 07:00:08;;;;;;;8.90;3.60;;;;;;;6.23;43.34;98846.36;108656;1273;22969;-77
2022/02/19 07:03:10;;;;;;;9.90;4.10;;;;;;;6.29;43.33;98857.53;108408;1274;22236;-77
2022/02/19 07:05:58;;;;;;;13.20;3.50;;;;;;;6.35;43.35;98859.28;108831;1268;23106;-77
2022/02/19 07:08:40;;;;;;;8.30;3.50;;;;;;;6.39;43.20;98865.30;108982;1270;23683;-78
2022/02/19 07:11:33;;;;;;;9.00;4.10;;;;;;;6.44;43.04;98867.04;108896;1267;22488;-77
2022/02/19 07:14:03;;;;;;;9.30;3.60;;;;;;;6.47;42.92;98874.19;108463;1273;23552;-77
2022/02/19 07:17:09;;;;;;;11.90;3.40;;;;;;;6.49;42.91;98885.09;108668;1273;22005;-78
2022/02/19 07:20:22;;;;;;;11.10;3.40;;;;;;;6.51;42.89;98892.21;108955;1265;23041;-78
2022/02/19 07:23:26;;;;;;;;;;;;;;;;;;;;;
2022/02/19 07:26:18;;;;;;;6.10;3.40;;;;;;;6.58;42.73;98906.75;109683;1261;21984;-78
2022/02/19 07:29:16;;;;;;;9.50;3.50;;;;;;;6.65;42.90;98918.48;109489;1261;21988;-77
2022/02/19 07:31:50;;;;;;;8.90;2.70;;;;;;;6.73;42.86;98932.05;109553;1257;21989;-77
2022/02/19 07:36:11;;;;;;;;;;;;;;;;;;;;;
2022/02/19 07:44:16;;;;;;;;;;;;;;;;;;;;;
2022/02/19 08:03:20;;;;;;;8.30;4.00;;;;;;;8.34;39.75;98961.99;108305;1273;548043;-77
2022/02/19 08:07:04;;;;;;;;;;;;;;;;;;;;;
2022/02/19 08:10:15;;;;;;;11.60;3.70;;;;;;;7.99;39.28;98986.59;111379;1246;23049;-76
2022/02/19 08:13:07;;;;;;;9.60;3.70;;;;;;;7.82;39.75;98991.33;111210;1246;21999;-77
2022/02/19 08:15:55;;;;;;;12.00;4.10;;;;;;;7.86;40.56;98988.58;111189;1246;21958;-78
2022/02/19 08:18:42;;;;;;;10.10;3.80;;;;;;;8.09;40.60;98988.52;111345;1246;21967;-76
2022/02/19 08:21:42;;;;;;;7.40;2.00;;;;;;;8.39;40.57;99001.48;111708;1243;23041;-78
2022/02/19 08:24:33;;;;;;;7.00;2.10;;;;;;;8.70;39.99;99001.80;111607;1241;23671;-78
2022/02/19 08:27:17;;;;;;;6.70;2.80;;;;;;;8.97;39.49;99017.92;111278;1248;21966;-77
2022/02/19 08:30:03;;;;;;;4.70;2.10;;;;;;;9.27;39.17;99016.91;111144;1248;22006;-77
2022/02/19 08:34:11;;;;;;;8.20;3.00;;;;;;;9.64;38.86;99014.91;110714;1254;21977;-77
2022/02/19 08:38:39;;;;;;;;;;;;;;;;;;;;;
2022/02/19 08:42:39;;;;;;;8.60;2.80;;;;;;;10.10;37.43;99046.71;110647;1254;23706;-78
2022/02/19 08:51:00;;;;;;;;;;;;;;;;;;;;;
2022/02/19 08:55:29;;;;;;;;;;;;;;;;;;;;;
2022/02/19 08:58:51;;;;;;;;;;;;;;;;;;;;;
2022/02/19 09:02:52;;;;;;;;;;;;;;;;;;;;;
2022/02/19 09:23:38;;;;;;;;;;;;;;;;;;;;;
2022/02/19 09:27:05;;;;;;;9.80;3.60;;;;;;;8.68;38.04;99165.70;110862;1254;21981;-78
2022/02/19 09:30:21;;;;;;;7.20;3.50;;;;;;;8.43;39.05;99175.06;111625;1243;22001;-78
2022/02/19 09:34:07;;;;;;;;;;;;;;;;;;;;;
2022/02/19 09:38:25;;;;;;;;;;;;;;;;;;;;;
2022/02/19 09:41:28;;;;;;;7.60;3.00;;;;;;;8.20;40.63;99208.24;109695;1263;23055;-77
2022/02/19 09:45:07;;;;;;;;;;;;;;;;;;;;;
2022/02/19 09:48:41;;;;;;;;;;;;;;;;;;;;;
2022/02/19 09:55:22;;;;;;;7.30;4.00;;;;;;;8.34;40.71;99243.54;109368;1263;23816;-78
2022/02/19 09:59:12;;;;;;;;;;;;;;;;;;;;;
2022/02/19 10:03:34;;;;;;;;;;;;;;;;;;;;;
2022/02/19 10:07:57;;;;;;;;;;;;;;;;;;;;;
2022/02/19 10:15:50;;;;;;;7.70;3.80;;;;;;;7.94;41.79;99304.92;106984;1289;509811;-76
2022/02/19 10:20:40;;;;;;;;;;;;;;;;;;;;;
2022/02/19 10:25:27;;;;;;;;;;;;;;;;;;;;;
2022/02/19 10:28:07;;;;;;;8.90;4.30;;;;;;;7.62;42.53;99344.34;106307;1302;22090;-76
2022/02/19 10:32:19;;;;;;;7.00;3.20;;;;;;;7.78;42.62;99345.52;107677;1286;548478;-76
2022/02/19 10:36:13;;;;;;;;;;;;;;;;;;;;;
2022/02/19 10:40:46;;;;;;;;;;;;;;;;;;;;;
2022/02/19 10:45:33;;;;;;;;;;;;;;;;;;;;;
2022/02/19 10:49:43;;;;;;;;;;;;;;;;;;;;;
2022/02/19 10:58:03;;;;;;;;;;;;;;;;;;;;;
2022/02/19 11:32:32;;;;;;;;;;;;;;;;;;;;;
2022/02/19 11:47:53;;;;;;;;;;;;;;;;;;;;;
2022/02/19 11:50:28;;;;;;;5.70;3.40;;;;;;;8.98;41.43;99485.11;110385;1257;293990;-77
2022/02/19 11:53:49;;;;;;;;;;;;;;;;;;;;;
2022/02/19 11:57:31;;;;;;;;;;;;;;;;;;;;;
2022/02/19 12:05:26;;;;;;;10.50;4.70;;;;;;;7.62;43.88;99514.80;110266;1259;22003;-77
2022/02/19 12:08:55;;;;;;;11.00;3.90;;;;;;;7.54;44.31;99520.11;109486;1263;23714;-77
2022/02/19 12:12:41;;;;;;;;;;;;;;;;;;;;;
2022/02/19 12:16:04;;;;;;;;;;;;;;;;;;;;;
2022/02/19 12:19:23;;;;;;;7.10;3.30;;;;;;;7.48;44.83;99548.08;109366;1263;22000;-77
2022/02/19 12:23:08;;;;;;;7.70;3.10;;;;;;;7.40;44.94;99552.82;109184;1267;23861;-78
2022/02/19 12:27:07;;;;;;;;;;;;;;;;;;;;;
2022/02/19 12:30:42;;;;;;;7.60;3.00;;;;;;;7.24;45.28;99577.31;108769;1274;22236;-76
2022/02/19 12:33:50;;;;;;;7.20;3.30;;;;;;;7.27;45.53;99567.15;108581;1276;21956;-77
2022/02/19 12:37:49;;;;;;;;;;;;;;;;;;;;;
2022/02/19 12:41:15;;;;;;;10.20;5.30;;;;;;;7.47;45.44;99579.73;109704;1263;21979;-77
2022/02/19 12:45:11;;;;;;;9.40;3.90;;;;;;;7.39;45.52;99587.44;109073;1270;23628;-77
2022/02/19 12:49:16;;;;;;;;;;;;;;;;;;;;;
2022/02/19 12:57:29;;;;;;;;;;;;;;;;;;;;;
2022/02/19 13:00:16;;;;;;;9.10;4.50;;;;;;;7.26;46.00;99615.77;107733;1291;22446;-78
2022/02/19 13:03:20;;;;;;;;;;;;;;;;;;;;;
2022/02/19 13:06:07;;;;;;;6.50;2.90;;;;;;;7.29;45.86;99627.91;107366;1291;23720;-77
2022/02/19 13:08:48;;;;;;;8.60;4.50;;;;;;;7.26;45.75;99636.28;107051;1291;22022;-77
2022/02/19 13:11:23;;;;;;;9.00;4.60;;;;;;;7.27;45.72;99635.89;107885;1283;22008;-76
2022/02/19 13:14:40;;;;;;;8.50;5.00;;;;;;;7.25;45.78;99636.91;108348;1279;22072;-77
2022/02/19 13:17:52;;;;;;;10.40;3.40;;;;;;;7.20;45.81;99647.05;108201;1283;22181;-77
2022/02/19 13:21:04;;;;;;;12.70;3.80;;;;;;;7.18;45.93;99642.56;108026;1283;22180;-76
2022/02/19 13:24:15;;;;;;;;;;;;;;;;;;;;;
2022/02/19 13:31:13;;;;;;;15.10;5.50;;;;;;;7.16;46.38;99654.52;108350;1279;23009;-76
2022/02/19 13:34:50;;;;;;;10.70;6.00;;;;;;;7.18;46.49;99663.23;108532;1273;23007;-78
2022/02/19 13:38:53;;;;;;;;;;;;;;;;;;;;;
2022/02/19 13:42:03;;;;;;;;;;;;;;;;;;;;;
2022/02/19 13:45:25;;;;;;;13.90;6.10;;;;;;;7.20;46.21;99679.89;108721;1275;24405;-76
2022/02/19 13:49:17;;;;;;;;;;;;;;;;;;;;;
2022/02/19 13:52:24;;;;;;;14.40;7.20;;;;;;;7.17;46.42;99695.77;108337;1279;23225;-77
2022/02/19 13:56:03;;;;;;;;;;;;;;;;;;;;;
2022/02/19 13:59:54;;;;;;;;;;;;;;;;;;;;;
2022/02/19 14:03:50;;;;;;;15.50;6.80;;;;;;;7.14;46.43;99712.41;108132;1286;23071;-76
2022/02/19 14:07:11;;;;;;;;;;;;;;;;;;;;;
2022/02/19 14:10:28;;;;;;;13.10;6.60;;;;;;;7.09;46.47;99729.20;107970;1285;23756;-77
2022/02/19 14:13:36;;;;;;;14.20;7.10;;;;;;;7.04;46.40;99732.45;107694;1285;22001;-77
2022/02/19 14:16:57;;;;;;;20.40;11.40;;;;;;;7.02;46.56;99742.17;107713;1288;22018;-78
2022/02/19 14:23:27;;;;;;;12.40;7.00;;;;;;;6.92;46.63;99746.17;107051;1291;23812;-77
2022/02/19 14:26:26;;;;;;;10.90;4.90;;;;;;;6.89;46.76;99748.98;107263;1291;22078;-78
2022/02/19 14:28:59;;;;;;;9.20;5.30;;;;;;;6.86;46.81;99754.52;107281;1291;22054;-78
2022/02/19 14:31:37;;;;;;;;;;;;;;;;;;;;;
2022/02/19 14:34:39;;;;;;;;;;;;;;;;;;;;;
2022/02/19 14:37:32;;;;;;;;;;;;;;;;;;;;;
2022/02/19 14:40:38;;;;;;;8.80;3.90;;;;;;;6.75;46.89;99768.45;107585;1284;22494;-78
2022/02/19 14:43:43;;;;;;;15.50;5.90;;;;;;;6.69;46.99;99777.88;108199;1276;23627;-78
2022/02/19 14:46:34;;;;;;;20.60;8.70;;;;;;;6.69;47.13;99782.89;108541;1276;22471;-78
2022/02/19 14:49:47;;;;;;;13.40;6.70;;;;;;;6.69;47.29;99787.71;108392;1279;22565;-78
2022/02/19 14:52:57;;;;;;;9.20;4.10;;;;;;;6.66;47.34;99792.79;108522;1276;22000;-76
2022/02/19 14:56:18;;;;;;;6.40;3.00;;;;;;;6.64;47.32;99799.86;108545;1273;24428;-77
2022/02/19 15:00:25;;;;;;;;;;;;;;;;;;;;;
2022/02/19 15:03:05;;;;;;;8.90;4.80;;;;;;;6.59;47.27;99818.83;107908;1288;23617;-77
2022/02/19 15:05:32;;;;;;;8.10;4.50;;;;;;;6.58;47.39;99822.93;107695;1288;23635;-76
2022/02/19 15:07:58;;;;;;;7.50;4.50;;;;;;;6.56;47.33;99828.01;108038;1282;22068;-77
2022/02/19 15:10:26;;;;;;;10.80;3.40;;;;;;;6.54;47.30;99826.02;108152;1282;22063;-77
2022/02/19 15:12:52;;;;;;;8.50;3.40;;;;;;;6.51;47.32;99822.91;107913;1282;22011;-76
2022/02/19 15:15:24;;;;;;;14.60;6.90;;;;;;;6.50;47.42;99826.09;108142;1282;23450;-76
2022/02/19 15:17:52;;;;;;;19.20;8.50;;;;;;;6.47;47.60;99828.29;108408;1279;23822;-77
2022/02/19 15:20:30;;;;;;;12.30;5.40;;;;;;;6.45;47.58;99829.69;108472;1278;24533;-76
2022/02/19 15:23:02;;;;;;;9.40;4.40;;;;;;;6.43;47.64;99835.02;108630;1276;22003;-77
2022/02/19 15:25:36;;;;;;;10.80;5.60;;;;;;;6.40;47.84;99840.38;108505;1278;23089;-77
2022/02/19 15:28:11;;;;;;;12.60;5.50;;;;;;;6.39;47.95;99839.23;108673;1275;25000;-77
2022/02/19 15:30:44;;;;;;;8.80;5.20;;;;;;;6.38;48.03;99845.61;108622;1273;22041;-77
2022/02/19 15:33:21;;;;;;;13.20;7.60;;;;;;;6.36;48.27;99846.86;108679;1275;24412;-78
2022/02/19 15:36:24;;;;;;;10.00;5.30;;;;;;;6.33;48.50;99848.38;108896;1267;23049;-77
2022/02/19 15:39:43;;;;;;;;;;;;;;;;;;;;;
2022/02/19 15:43:06;;;;;;;17.60;9.50;;;;;;;6.26;49.00;99856.09;109334;1264;21990;-77
2022/02/19 15:46:45;;;;;;;;;;;;;;;;;;;;;
2022/02/19 15:49:50;;;;;;;27.10;14.10;;;;;;;6.16;49.15;99858.10;109578;1263;22000;-77
2022/02/19 15:53:44;;;;;;;;;;;;;;;;;;;;;
2022/02/19 15:57:41;;;;;;;;;;;;;;;;;;;;;
2022/02/19 16:00:43;;;;;;;21.70;11.20;;;;;;;5.95;49.42;99882.79;110444;1257;23675;-78
2022/02/19 16:03:44;;;;;;;18.10;9.20;;;;;;;5.91;49.53;99885.50;109900;1260;21984;-78
2022/02/19 16:06:51;;;;;;;18.30;10.60;;;;;;;5.88;49.65;99891.52;109468;1264;22112;-78
2022/02/19 16:10:08;;;;;;;23.40;11.50;;;;;;;5.87;49.70;99895.17;108904;1273;21989;-76
2022/02/19 16:12:54;;;;;;;17.20;8.70;;;;;;;5.87;49.74;99900.73;108576;1279;23032;-77
2022/02/19 16:15:45;;;;;;;;;;;;;;;;;;;;;
2022/02/19 16:19:18;;;;;;;38.50;19.20;;;;;;;5.87;49.74;99898.31;108416;1279;23040;-77
2022/02/19 16:22:21;;;;;;;41.20;22.60;;;;;;;5.85;49.75;99908.78;108556;1276;22004;-76
2022/02/19 16:25:54;;;;;;;;;;;;;;;;;;;;;
2022/02/19 16:29:25;;;;;;;17.10;11.50;;;;;;;5.85;49.64;99925.05;108613;1276;23577;-77
2022/02/19 16:32:16;;;;;;;19.30;9.90;;;;;;;5.87;49.50;99932.36;108621;1276;23094;-76
2022/02/19 16:36:00;;;;;;;;;;;;;;;;;;;;;
2022/02/19 16:39:21;;;;;;;17.40;9.30;;;;;;;5.88;49.15;99955.34;108749;1276;22010;-76
2022/02/19 16:43:07;;;;;;;29.30;16.20;;;;;;;5.89;49.06;99966.08;108562;1276;22108;-75
2022/02/19 16:46:22;;;;;;;23.30;12.00;;;;;;;5.88;48.88;99974.39;108593;1278;23761;-77
2022/02/19 16:49:13;;;;;;;21.80;10.80;;;;;;;5.89;48.81;99983.08;108598;1272;22001;-77
2022/02/19 16:52:19;;;;;;;16.70;10.00;;;;;;;5.90;48.74;99984.20;108963;1272;21987;-77
2022/02/19 16:56:25;;;;;;;;;;;;;;;;;;;;;
2022/02/19 16:59:20;;;;;;;16.40;8.50;;;;;;;5.88;48.56;99987.33;108620;1275;22019;-77
2022/02/19 17:02:24;;;;;;;15.40;8.30;;;;;;;5.89;48.50;99994.59;108368;1276;23087;-78
2022/02/19 17:05:26;;;;;;;16.40;7.90;;;;;;;5.90;48.37;99995.92;108677;1275;22135;-76
2022/02/19 17:08:39;;;;;;;15.10;8.20;;;;;;;5.91;48.19;100004.75;108656;1275;21985;-77
2022/02/19 17:11:48;;;;;;;;;;;;;;;;;;;;;
2022/02/19 17:15:25;;;;;;;;;;;;;;;;;;;;;
2022/02/19 17:18:13;;;;;;;13.20;5.70;;;;;;;5.86;48.03;100024.77;108773;1273;23845;-78
2022/02/19 17:21:35;;;;;;;10.30;4.70;;;;;;;5.84;48.04;100026.01;109265;1260;22468;-76
2022/02/19 17:25:10;;;;;;;16.10;8.30;;;;;;;5.83;48.08;100030.34;110149;1260;23769;-77
2022/02/19 17:28:43;;;;;;;;;;;;;;;;;;;;;
2022/02/19 17:31:55;;;;;;;17.10;8.60;;;;;;;5.85;47.96;100044.96;109923;1262;24447;-77
2022/02/19 17:35:13;;;;;;;23.00;10.80;;;;;;;5.86;47.87;100046.59;109904;1263;21991;-77
2022/02/19 17:39:12;;;;;;;23.70;11.00;;;;;;;5.86;47.80;100051.66;109779;1262;22085;-76
2022/02/19 17:43:12;;;;;;;;;;;;;;;;;;;;;
2022/02/19 17:46:44;;;;;;;22.70;11.20;;;;;;;5.83;47.75;100053.92;109340;1268;23169;-77
2022/02/19 17:54:19;;;;;;;36.50;18.80;;;;;;;5.93;47.64;100063.65;107857;1286;544476;-78
2022/02/19 17:57:50;;;;;;;33.00;17.70;;;;;;;5.90;47.54;100068.42;111169;1250;22045;-77
2022/02/19 18:01:29;;;;;;;;;;;;;;;;;;;;;
2022/02/19 18:04:16;;;;;;;17.00;10.10;;;;;;;5.84;47.51;100081.45;109788;1263;21993;-77
2022/02/19 18:08:06;;;;;;;17.20;9.20;;;;;;;5.83;47.47;100087.27;107124;1260;3418481;-77
2022/02/19 18:11:31;;;;;;;15.30;8.50;;;;;;;5.81;47.43;100095.11;110026;1260;21972;-78
2022/02/19 18:14:31;;;;;;;;;;;;;;;;;;;;;
2022/02/19 18:18:00;;;;;;;;;;;;;;;;;;;;;
2022/02/19 18:20:44;;;;;;;13.80;9.10;;;;;;;5.75;47.51;100102.72;108915;1270;22449;-77
2022/02/19 18:23:25;;;;;;;16.60;10.50;;;;;;;5.78;47.47;100107.65;109082;1269;21998;-77
2022/02/19 18:26:38;;;;;;;;;;;;;;;;;;;;;
2022/02/19 18:30:03;;;;;;;12.60;6.90;;;;;;;5.80;47.33;100116.95;109542;1264;21981;-76
2022/02/19 18:33:25;;;;;;;24.40;15.10;;;;;;;5.79;47.37;100121.91;109649;1263;21991;-77
2022/02/19 18:36:40;;;;;;;;;;;;;;;;;;;;;
2022/02/19 18:39:50;;;;;;;14.10;9.00;;;;;;;5.78;47.34;100124.33;110119;1259;21970;-77
2022/02/19 18:43:02;;;;;;;;;;;;;;;;;;;;;
2022/02/19 18:46:50;;;;;;;17.40;8.40;;;;;;;5.75;47.40;100130.52;110779;1256;21996;-76
2022/02/19 18:50:37;;;;;;;15.30;9.40;;;;;;;5.75;47.46;100125.48;110722;1256;22019;-74
2022/02/19 18:54:12;;;;;;;14.10;8.30;;;;;;;5.75;47.43;100129.98;110754;1248;22754;-76
2022/02/19 18:57:51;;;;;;;13.90;7.30;;;;;;;5.70;47.46;100129.91;109674;1265;22044;-76
2022/02/19 19:01:09;;;;;;;;;;;;;;;;;;;;;
2022/02/19 19:03:56;;;;;;;;;;;;;;;;;;;;;
2022/02/19 19:07:25;;;;;;;17.20;9.10;;;;;;;5.72;47.50;100132.89;108765;1276;22005;-76
2022/02/19 19:10:28;;;;;;;26.00;16.50;;;;;;;5.70;47.53;100128.87;108662;1276;22102;-79
2022/02/19 19:12:58;;;;;;;20.30;11.60;;;;;;;5.67;47.45;100128.42;108508;1276;22053;-76
2022/02/19 19:15:32;;;;;;;22.30;10.40;;;;;;;5.65;47.43;100132.47;108957;1267;22015;-77
2022/02/19 19:18:18;;;;;;;27.50;14.70;;;;;;;5.61;47.47;100131.61;109458;1267;21989;-76
2022/02/19 19:20:59;;;;;;;31.50;16.70;;;;;;;5.56;47.49;100129.58;109374;1265;21994;-77
2022/02/19 19:23:35;;;;;;;34.00;19.80;;;;;;;5.53;47.50;100128.52;109816;1262;23012;-76
2022/02/19 19:26:17;;;;;;;28.30;13.70;;;;;;;5.49;47.58;100135.48;109839;1262;22765;-76
2022/02/19 19:28:50;;;;;;;24.50;12.40;;;;;;;5.45;47.63;100141.08;110023;1262;21985;-76
2022/02/19 19:31:36;;;;;;;33.30;16.20;;;;;;;5.42;47.74;100144.71;109424;1265;21997;-77
2022/02/19 19:35:22;;;;;;;26.00;14.50;;;;;;;5.39;47.80;100146.20;109258;1265;23072;-76
2022/02/19 19:38:45;;;;;;;53.80;30.00;;;;;;;5.34;47.89;100143.70;109009;1270;23642;-76
2022/02/19 19:41:31;;;;;;;18.50;10.30;;;;;;;5.32;47.95;100145.60;109208;1267;23117;-76
2022/02/19 19:45:18;;;;;;;;;;;;;;;;;;;;;
2022/02/19 19:47:53;;;;;;;20.40;10.10;;;;;;;5.35;48.21;100143.75;109371;1266;22095;-77
2022/02/19 19:51:28;;;;;;;22.30;11.40;;;;;;;5.36;48.15;100143.65;109673;1261;23143;-77
2022/02/19 19:54:18;;;;;;;22.60;9.60;;;;;;;5.35;48.10;100150.55;109259;1267;21988;-77
2022/02/19 19:57:13;;;;;;;14.80;7.60;;;;;;;5.31;48.04;100154.73;109303;1267;21991;-77
2022/02/19 20:00:33;;;;;;;15.50;9.50;;;;;;;5.24;47.90;100154.18;109001;1270;22087;-75
2022/02/19 20:03:54;;;;;;;23.30;13.90;;;;;;;5.16;48.10;100159.09;108190;1285;22385;-77
2022/02/19 20:10:33;;;;;;;;;;;;;;;;;;;;;
2022/02/19 20:13:35;;;;;;;;;;;;;;;;;;;;;
2022/02/19 20:16:37;;;;;;;;;;;;;;;;;;;;;
2022/02/19 20:19:28;;;;;;;;;;;;;;;;;;;;;
2022/02/19 20:22:47;;;;;;;23.90;11.40;;;;;;;4.73;48.97;100173.23;108092;1285;22006;-76
2022/02/19 20:26:07;;;;;;;22.20;10.90;;;;;;;4.66;49.10;100173.64;107950;1282;22321;-75
2022/02/19 20:28:50;;;;;;;16.70;9.50;;;;;;;4.59;49.14;100175.42;108459;1279;22037;-76
2022/02/19 20:32:06;;;;;;;21.30;10.60;;;;;;;4.53;49.39;100179.34;108632;1271;23039;-76
2022/02/19 20:35:28;;;;;;;22.80;11.90;;;;;;;4.46;49.59;100180.23;108831;1268;23073;-76
2022/02/19 20:38:51;;;;;;;17.20;8.20;;;;;;;4.37;49.78;100183.16;108797;1273;23781;-75
2022/02/19 20:41:38;;;;;;;15.90;7.20;;;;;;;4.33;49.96;100182.81;108715;1273;23059;-77
2022/02/19 20:48:44;;;;;;;16.10;7.70;;;;;;;4.23;50.15;100180.99;108610;1277;23379;-75
2022/02/19 20:52:19;;;;;;;;;;;;;;;;;;;;;
2022/02/19 20:57:06;;;;;;;;;;;;;;;;;;;;;
2022/02/19 21:00:49;;;;;;;18.50;9.20;;;;;;;4.10;50.47;100184.79;108338;1282;22168;-77
2022/02/19 21:03:46;;;;;;;;;;;;;;;;;;;;;
2022/02/19 21:07:51;;;;;;;;;;;;;;;;;;;;;
2022/02/19 21:12:19;;;;;;;;;;;;;;;;;;;;;
2022/02/19 21:16:16;;;;;;;19.00;8.80;;;;;;;3.96;50.72;100183.97;108926;1271;22027;-75
2022/02/19 21:20:34;;;;;;;;;;;;;;;;;;;;;
2022/02/19 21:25:17;;;;;;;19.10;8.00;;;;;;;3.82;51.05;100178.41;105094;1268;5409174;-77
2022/02/19 21:34:09;;;;;;;;;;;;;;;;;;;;;
2022/02/19 21:37:36;;;;;;;;;;;;;;;;;;;;;
2022/02/19 21:40:41;;;;;;;55.00;30.50;;;;;;;3.70;51.32;100169.48;107794;1289;22016;-78
2022/02/19 21:44:09;;;;;;;;;;;;;;;;;;;;;
2022/02/19 21:47:49;;;;;;;;;;;;;;;;;;;;;
2022/02/19 22:12:37;;;;;;;;;;;;;;;;;;;;;
2022/02/19 22:16:44;;;;;;;;;;;;;;;;;;;;;
2022/02/19 22:20:34;;;;;;;21.90;11.50;;;;;;;3.88;49.52;100181.91;111309;1248;21934;-77
2022/02/19 22:24:51;;;;;;;21.10;11.40;;;;;;;3.70;50.10;100174.46;110398;1259;21982;-77
2022/02/19 22:28:26;;;;;;;19.30;9.80;;;;;;;3.59;50.40;100168.95;109792;1263;22005;-77